Time;durP1;ratioP1;P1;durP2;ratioP2;P2;SDS_P1;SDS_P2;PMS_P1;PMS_P2;Temp;Humidity;BMP_temperature;BMP_pressure;BME280_temperature;BME280_humidity;BME280_pressure;Samples;Min_cycle;Max_cycle;Signal;HPM_P1;HPM_P2
2022/05/30 00:00:47;;;;;;;0.30;0.20;;;16.40;47.60;18.50;93177.00;;;;10235949;28;46532;-61
2022/05/30 00:06:10;;;;;;;0.65;0.30;;;16.40;46.80;18.50;93175.00;;;;10235092;28;45754;-61
2022/05/30 00:11:32;;;;;;;0.40;0.22;;;16.40;46.80;18.50;93179.00;;;;10234833;28;45187;-61
2022/05/30 00:16:53;;;;;;;0.77;0.28;;;16.40;46.90;18.40;93181.00;;;;10235044;28;45309;-61
2022/05/30 00:22:14;;;;;;;0.68;0.25;;;16.40;46.90;18.40;93166.00;;;;10234294;28;45302;-61
2022/05/30 00:27:36;;;;;;;0.38;0.30;;;16.40;46.80;18.50;93167.00;;;;10234120;28;45130;-61
2022/05/30 00:32:57;;;;;;;0.30;0.20;;;16.40;46.90;18.40;93174.00;;;;10234471;28;45101;-61
2022/05/30 00:38:18;;;;;;;0.82;0.20;;;16.40;46.80;18.40;93165.00;;;;10234400;28;45318;-61
2022/05/30 00:43:44;;;;;;;0.38;0.22;;;16.40;46.90;18.40;93164.00;;;;10234211;28;45148;-61
2022/05/30 00:49:08;;;;;;;0.20;0.20;;;16.40;46.90;18.40;93164.00;;;;10234099;28;45105;-61
2022/05/30 00:54:36;;;;;;;0.73;0.30;;;16.40;46.90;18.40;93164.00;;;;10233760;28;45282;-60
2022/05/30 01:00:03;;;;;;;0.60;0.20;;;16.40;46.90;18.40;93156.00;;;;10229993;28;45834;-60
2022/05/30 01:11:02;;;;;;;0.57;0.22;;;16.40;46.80;18.40;93133.00;;;;10233500;28;45172;-60
2022/05/30 01:16:24;;;;;;;0.20;0.20;;;16.40;46.80;18.40;93129.00;;;;10233040;28;45690;-61
2022/05/30 01:22:08;;;;;;;0.55;0.28;;;16.30;46.80;18.40;93121.00;;;;10233120;28;45766;-61
2022/05/30 01:27:42;;;;;;;0.55;0.25;;;16.40;46.90;18.40;93110.00;;;;10232940;28;45155;-61
2022/05/30 01:33:05;;;;;;;0.55;0.30;;;16.30;46.80;18.40;93101.00;;;;10232855;28;45189;-61
2022/05/30 01:38:27;;;;;;;0.40;0.25;;;16.30;46.80;18.30;93108.00;;;;10232293;28;45111;-62
2022/05/30 01:43:48;;;;;;;0.55;0.30;;;16.30;46.80;18.40;93097.00;;;;10232602;28;45730;-62
2022/05/30 01:49:11;;;;;;;0.25;0.20;;;16.30;46.70;18.30;93102.00;;;;10232109;28;45246;-62
2022/05/30 01:54:32;;;;;;;0.22;0.17;;;16.30;46.70;18.30;93083.00;;;;10232392;28;45735;-61
2022/05/30 01:59:53;;;;;;;0.15;0.15;;;16.30;46.50;18.40;93092.00;;;;10231682;28;45162;-61
2022/05/30 02:05:15;;;;;;;0.35;0.25;;;16.30;46.50;18.30;93087.00;;;;10236186;28;45314;-61
2022/05/30 02:10:37;;;;;;;0.47;0.20;;;16.30;46.50;18.40;93086.00;;;;10238928;28;45183;-61
2022/05/30 02:21:38;;;;;;;0.25;0.20;;;16.30;46.40;18.30;93094.00;;;;10238093;28;45750;-62
2022/05/30 02:26:58;;;;;;;0.95;0.20;;;16.30;46.30;18.30;93087.00;;;;10238298;28;45747;-61
2022/05/30 02:32:19;;;;;;;0.52;0.30;;;16.30;46.40;18.30;93077.00;;;;10238189;28;45219;-62
2022/05/30 02:37:40;;;;;;;0.30;0.20;;;16.30;46.40;18.30;93075.00;;;;10238169;28;45209;-61
2022/05/30 02:43:01;;;;;;;0.40;0.30;;;16.30;46.30;18.30;93094.00;;;;10238120;28;45154;-62
2022/05/30 02:48:22;;;;;;;0.10;0.10;;;16.20;46.20;18.30;93080.00;;;;10237456;28;45140;-61
2022/05/30 02:53:44;;;;;;;0.70;0.30;;;16.20;46.20;18.20;93099.00;;;;10237607;28;45150;-62
2022/05/30 02:59:05;;;;;;;0.57;0.30;;;16.20;46.10;18.20;93094.00;;;;10237195;28;45137;-62
2022/05/30 03:04:26;;;;;;;0.40;0.20;;;16.20;45.80;18.20;93099.00;;;;10237070;28;45151;-61
2022/05/30 03:09:48;;;;;;;1.02;0.20;;;16.20;45.70;18.20;93106.00;;;;10236644;28;45223;-62
2022/05/30 03:15:10;;;;;;;0.85;0.17;;;16.20;45.70;18.20;93108.00;;;;10236601;28;45512;-61
2022/05/30 03:20:30;;;;;;;0.38;0.20;;;16.20;45.50;18.20;93115.00;;;;10236623;28;45293;-61
2022/05/30 03:25:52;;;;;;;0.68;0.20;;;16.20;45.30;18.20;93100.00;;;;10236550;28;45426;-61
2022/05/30 03:31:13;;;;;;;0.52;0.20;;;16.20;45.60;18.20;93103.00;;;;10236264;28;45190;-61
2022/05/30 03:36:34;;;;;;;0.50;0.40;;;16.20;45.30;18.20;93110.00;;;;10237127;28;45248;-62
2022/05/30 03:41:56;;;;;;;0.20;0.17;;;16.20;45.40;18.20;93102.00;;;;10237185;28;45814;-61
2022/05/30 03:47:18;;;;;;;0.85;0.20;;;16.20;45.20;18.20;93101.00;;;;10237096;28;45094;-61
2022/05/30 03:52:39;;;;;;;0.70;0.30;;;16.20;45.00;18.10;93094.00;;;;10237117;28;45582;-62
2022/05/30 03:58:00;;;;;;;0.52;0.30;;;16.10;45.00;18.20;93119.00;;;;10236480;28;45813;-61
2022/05/30 04:03:21;;;;;;;1.02;0.30;;;16.10;44.90;18.20;93108.00;;;;10236758;28;45162;-61
2022/05/30 04:08:41;;;;;;;1.33;0.38;;;16.10;44.90;18.10;93122.00;;;;10236109;28;45147;-61
2022/05/30 04:14:03;;;;;;;0.50;0.25;;;16.10;44.90;18.20;93121.00;;;;10236047;28;45787;-61
2022/05/30 04:19:24;;;;;;;0.43;0.20;;;16.10;44.80;18.10;93122.00;;;;10235274;28;45742;-61
2022/05/30 04:24:45;;;;;;;0.80;0.30;;;16.10;44.50;18.10;93128.00;;;;10236319;28;46036;-62
2022/05/30 04:30:09;;;;;;;0.70;0.40;;;16.10;44.80;18.10;93123.00;;;;10233779;28;45293;-62
2022/05/30 04:35:30;;;;;;;0.68;0.30;;;16.10;45.20;18.10;93128.00;;;;10234325;28;45804;-61
2022/05/30 04:40:51;;;;;;;0.55;0.32;;;16.10;44.40;18.10;93127.00;;;;10234058;28;45773;-61
2022/05/30 04:46:15;;;;;;;0.82;0.30;;;16.10;44.50;18.10;93135.00;;;;10234594;28;45215;-61
2022/05/30 04:51:36;;;;;;;0.52;0.30;;;16.10;44.40;18.10;93126.00;;;;10233950;28;45755;-62
2022/05/30 04:56:57;;;;;;;0.20;0.20;;;16.10;44.20;18.10;93136.00;;;;10233728;28;45903;-61
2022/05/30 05:02:19;;;;;;;0.45;0.25;;;16.10;44.30;18.10;93142.00;;;;10233624;28;45761;-61
2022/05/30 05:07:45;;;;;;;0.77;0.30;;;16.10;44.10;18.10;93155.00;;;;10233476;28;45226;-62
2022/05/30 05:13:06;;;;;;;0.88;0.25;;;16.10;44.10;18.10;93141.00;;;;10233892;28;45204;-61
2022/05/30 05:18:28;;;;;;;0.45;0.30;;;16.10;43.90;18.20;93154.00;;;;10232505;28;45834;-61
2022/05/30 05:23:49;;;;;;;0.95;0.40;;;16.10;43.90;18.10;93153.00;;;;10233202;28;45104;-61
2022/05/30 05:29:09;;;;;;;0.60;0.30;;;16.10;43.90;18.20;93163.00;;;;10232747;28;45265;-62
2022/05/30 05:34:31;;;;;;;0.73;0.43;;;16.10;43.80;18.20;93163.00;;;;10233108;28;45152;-61
2022/05/30 05:39:52;;;;;;;0.75;0.30;;;16.10;44.10;18.20;93167.00;;;;10232077;28;45161;-61
2022/05/30 05:45:12;;;;;;;1.15;0.40;;;16.10;43.80;18.20;93170.00;;;;10232714;28;45186;-61
2022/05/30 05:50:34;;;;;;;0.95;0.35;;;16.10;43.70;18.10;93166.00;;;;10232264;28;45182;-61
2022/05/30 05:55:55;;;;;;;0.40;0.30;;;16.10;44.00;18.10;93189.00;;;;10232131;28;45099;-61
2022/05/30 06:01:20;;;;;;;0.68;0.40;;;16.10;43.90;18.10;93190.00;;;;10231665;28;45437;-61
2022/05/30 06:06:42;;;;;;;0.70;0.30;;;16.10;44.00;18.10;93193.00;;;;10232754;28;45846;-61
2022/05/30 06:12:03;;;;;;;0.77;0.40;;;16.10;43.80;18.10;93197.00;;;;10233056;28;45311;-61
2022/05/30 06:17:24;;;;;;;0.70;0.30;;;16.10;43.90;18.10;93194.00;;;;10232778;28;45706;-61
2022/05/30 06:22:46;;;;;;;1.55;0.25;;;16.10;44.30;18.20;93204.00;;;;10231556;28;45186;-61
2022/05/30 06:28:06;;;;;;;0.98;0.30;;;16.10;42.80;18.10;93205.00;;;;10231070;28;45131;-61
2022/05/30 06:33:27;;;;;;;0.55;0.30;;;16.10;43.10;18.10;93206.00;;;;10232470;28;45202;-61
2022/05/30 06:38:49;;;;;;;0.95;0.30;;;16.10;43.30;18.10;93221.00;;;;10232169;28;45782;-61
2022/05/30 06:44:11;;;;;;;0.80;0.30;;;16.10;43.50;18.10;93226.00;;;;10232257;28;45175;-62
2022/05/30 06:49:32;;;;;;;0.88;0.30;;;16.10;43.80;18.10;93227.00;;;;10232350;28;45199;-61
2022/05/30 06:54:53;;;;;;;0.63;0.30;;;16.10;43.80;18.10;93227.00;;;;10237903;28;45787;-61
2022/05/30 07:00:16;;;;;;;0.43;0.38;;;16.10;43.90;18.10;93230.00;;;;10238270;28;45140;-61
2022/05/30 07:05:38;;;;;;;0.82;0.40;;;16.10;43.80;18.10;93228.00;;;;10238235;28;45807;-61
2022/05/30 07:11:01;;;;;;;0.47;0.20;;;16.10;43.90;18.10;93221.00;;;;10238346;28;45731;-61
2022/05/30 07:16:24;;;;;;;0.75;0.25;;;16.10;44.10;18.10;93236.00;;;;10237934;28;45175;-62
2022/05/30 07:21:45;;;;;;;0.40;0.20;;;16.10;44.00;18.10;93227.00;;;;10287523;23;45374;-61
2022/05/30 07:27:07;;;;;;;0.43;0.30;;;16.10;43.90;18.10;93235.00;;;;10276902;28;45186;-61
2022/05/30 07:32:29;;;;;;;0.90;0.30;;;16.10;44.00;18.10;93233.00;;;;10276661;28;45213;-61
2022/05/30 07:37:50;;;;;;;0.68;0.25;;;16.10;44.70;18.10;93230.00;;;;10276505;28;45117;-62
2022/05/30 07:43:12;;;;;;;0.28;0.22;;;16.10;44.00;18.10;93236.00;;;;10276388;28;45106;-61
2022/05/30 07:48:33;;;;;;;0.50;0.30;;;16.00;43.90;18.10;93238.00;;;;10275843;28;45110;-61
2022/05/30 07:53:53;;;;;;;0.63;0.30;;;16.10;43.80;18.10;93244.00;;;;10276479;28;45777;-61
2022/05/30 07:59:15;;;;;;;0.45;0.20;;;16.10;44.00;18.10;93242.00;;;;10276022;28;45499;-61
2022/05/30 08:04:37;;;;;;;0.93;0.30;;;16.10;43.80;18.10;93243.00;;;;10276295;28;45189;-61
2022/05/30 08:09:57;;;;;;;0.40;0.30;;;16.10;43.80;18.10;93236.00;;;;10275150;28;45181;-61
2022/05/30 08:15:19;;;;;;;0.95;0.40;;;16.10;43.80;18.10;93237.00;;;;10276024;28;45162;-61
2022/05/30 08:20:39;;;;;;;0.43;0.20;;;16.10;43.90;18.10;93248.00;;;;10274975;28;45141;-61
2022/05/30 08:26:00;;;;;;;0.40;0.32;;;16.10;44.00;18.10;93233.00;;;;10275258;28;45877;-61
2022/05/30 08:31:23;;;;;;;0.50;0.35;;;16.10;43.90;18.10;93233.00;;;;10275408;28;45868;-61
2022/05/30 08:36:44;;;;;;;0.73;0.30;;;16.10;44.10;18.10;93246.00;;;;10274641;28;45393;-61
2022/05/30 08:42:08;;;;;;;0.40;0.30;;;16.10;44.20;18.10;93253.00;;;;10274815;28;45222;-61
2022/05/30 08:47:47;;;;;;;0.65;0.30;;;16.10;44.20;18.10;93252.00;;;;10274287;28;45138;-61
2022/05/30 08:53:47;;;;;;;1.25;0.40;;;16.10;44.20;18.10;93264.00;;;;10274515;28;45963;-61
2022/05/30 08:59:28;;;;;;;0.38;0.22;;;16.10;44.20;18.10;93265.00;;;;10273660;28;45153;-61
2022/05/30 09:04:56;;;;;;;0.55;0.30;;;16.10;44.20;18.10;93267.00;;;;10274144;28;45139;-61
2022/05/30 09:10:24;;;;;;;0.50;0.30;;;16.10;44.20;18.10;93266.00;;;;10273776;28;45183;-61
2022/05/30 09:15:50;;;;;;;0.38;0.25;;;16.10;44.30;18.10;93253.00;;;;10273115;28;45233;-62
2022/05/30 09:21:13;;;;;;;0.45;0.30;;;16.10;44.30;18.10;93259.00;;;;10273532;28;45157;-61
2022/05/30 09:26:37;;;;;;;0.60;0.17;;;16.10;44.30;18.10;93272.00;;;;10273453;28;45391;-61
2022/05/30 09:32:11;;;;;;;0.73;0.30;;;16.10;44.30;18.10;93275.00;;;;10273073;28;45809;-61
2022/05/30 09:37:37;;;;;;;0.47;0.30;;;16.10;44.40;18.10;93269.00;;;;10273035;28;45140;-61
2022/05/30 09:42:58;;;;;;;0.50;0.20;;;16.10;44.40;18.10;93271.00;;;;10271776;28;45148;-61
2022/05/30 09:48:20;;;;;;;0.43;0.30;;;16.10;44.40;18.10;93280.00;;;;10271734;28;45178;-61
2022/05/30 09:53:47;;;;;;;0.90;0.30;;;16.10;44.30;18.10;93272.00;;;;10271961;28;45674;-61
2022/05/30 09:59:19;;;;;;;0.98;0.20;;;16.10;44.10;18.20;93282.00;;;;10271944;28;45539;-61
2022/05/30 10:04:42;;;;;;;2.63;0.50;;;16.20;44.00;18.20;93275.00;;;;10270710;28;45873;-61
2022/05/30 10:10:19;;;;;;;2.13;0.30;;;16.20;43.70;18.20;93283.00;;;;10269899;28;45236;-61
2022/05/30 10:15:42;;;;;;;2.33;0.40;;;16.20;43.90;18.20;93278.00;;;;10271751;28;45411;-61
2022/05/30 10:21:17;;;;;;;3.25;0.52;;;16.20;43.90;18.20;93275.00;;;;10269005;28;45179;-61
2022/05/30 10:32:33;;;;;;;0.77;0.30;;;16.20;44.00;18.20;93283.00;;;;10277874;28;45464;-61
2022/05/30 10:38:17;;;;;;;1.90;0.47;;;16.20;44.10;18.20;93263.00;;;;10278851;28;45800;-61
2022/05/30 10:43:53;;;;;;;0.80;0.30;;;16.20;44.20;18.20;93273.00;;;;10278466;28;45817;-61
2022/05/30 10:49:17;;;;;;;0.70;0.30;;;16.20;44.30;18.20;93288.00;;;;10275930;28;45269;-61
2022/05/30 10:54:43;;;;;;;1.35;0.38;;;16.20;44.40;18.20;93289.00;;;;10277539;28;45283;-61
2022/05/30 11:00:11;;;;;;;1.08;0.40;;;16.20;44.40;18.20;93301.00;;;;10276550;28;45244;-61
2022/05/30 11:05:39;;;;;;;0.90;0.35;;;16.20;44.50;18.20;93298.00;;;;10276846;28;45252;-61
2022/05/30 11:11:07;;;;;;;1.63;0.30;;;16.20;44.60;18.20;93303.00;;;;10276005;28;46026;-61
2022/05/30 11:16:39;;;;;;;2.45;0.30;;;16.20;44.60;18.20;93292.00;;;;10275409;28;45476;-62
2022/05/30 11:22:06;;;;;;;0.70;0.30;;;16.20;44.60;18.20;93307.00;;;;10276315;28;45246;-61
2022/05/30 11:27:37;;;;;;;0.50;0.35;;;16.20;44.70;18.20;93294.00;;;;10277307;28;45717;-61
2022/05/30 11:33:39;;;;;;;0.20;0.20;;;16.20;44.70;18.20;93299.00;;;;10276755;28;45217;-61
2022/05/30 11:39:17;;;;;;;3.10;0.50;;;16.20;44.70;18.20;93304.00;;;;10258928;28;45227;-61
2022/05/30 11:44:49;;;;;;;1.55;0.40;;;16.20;44.90;18.20;93310.00;;;;10235953;28;45259;-61
2022/05/30 11:50:29;;;;;;;0.30;0.20;;;16.20;45.00;18.30;93301.00;;;;10235096;28;45160;-61
2022/05/30 11:55:59;;;;;;;0.85;0.40;;;16.20;45.10;18.20;93311.00;;;;10236138;28;45817;-62
2022/05/30 12:01:22;;;;;;;0.90;0.30;;;16.20;45.10;18.20;93299.00;;;;10265097;28;45698;-62
2022/05/30 12:07:16;;;;;;;1.55;0.40;;;16.20;45.10;18.40;93316.00;;;;10275262;28;45166;-61
2022/05/30 12:12:51;;;;;;;1.65;0.28;;;16.30;45.10;18.30;93311.00;;;;10276300;28;45890;-61
2022/05/30 12:24:39;;;;;;;1.35;0.43;;;16.30;45.70;18.30;93316.00;;;;10275162;28;45738;-61
2022/05/30 12:30:00;;;;;;;2.05;0.40;;;16.30;45.20;18.30;93310.00;;;;10273340;28;45724;-61
2022/05/30 12:35:27;;;;;;;1.40;0.20;;;16.30;45.20;18.30;93314.00;;;;10274885;28;45259;-61
2022/05/30 12:41:20;;;;;;;1.17;0.40;;;16.30;45.30;18.30;93300.00;;;;10274468;28;45265;-61
2022/05/30 12:46:53;;;;;;;1.92;0.22;;;16.30;45.40;18.30;93302.00;;;;10272994;28;45168;-60
2022/05/30 12:52:18;;;;;;;1.30;0.40;;;16.30;45.40;18.30;93297.00;;;;10274808;28;45719;-61
2022/05/30 12:57:44;;;;;;;1.52;0.30;;;16.20;45.50;18.30;93308.00;;;;10271448;28;45226;-61
2022/05/30 13:03:22;;;;;;;2.35;0.50;;;16.30;45.50;18.30;93307.00;;;;10273555;28;45190;-61
2022/05/30 13:09:10;;;;;;;0.60;0.30;;;16.30;45.40;18.30;93300.00;;;;10273966;28;45682;-61
2022/05/30 13:15:06;;;;;;;;;;;16.30;45.40;18.40;93300.00;;;;10274699;28;45158;-62
2022/05/30 13:20:35;;;;;;;0.90;0.30;;;16.30;45.30;18.40;93297.00;;;;10273800;28;45250;-62
2022/05/30 13:25:56;;;;;;;0.88;0.38;;;16.40;45.40;18.40;93304.00;;;;10274125;28;45869;-60
2022/05/30 13:31:21;;;;;;;2.90;0.60;;;16.40;45.30;18.40;93295.00;;;;10273373;28;45653;-60
2022/05/30 13:36:43;;;;;;;0.82;0.20;;;16.40;45.20;18.40;93313.00;;;;10273498;28;45297;-60
2022/05/30 13:42:05;;;;;;;0.95;0.32;;;16.40;45.10;18.40;93303.00;;;;10273550;28;45124;-60
2022/05/30 13:47:26;;;;;;;0.55;0.25;;;16.40;45.10;18.40;93303.00;;;;10272828;28;47047;-61
2022/05/30 13:52:49;;;;;;;0.40;0.25;;;16.40;45.10;18.40;93297.00;;;;10273348;28;45497;-61
2022/05/30 13:58:10;;;;;;;0.70;0.35;;;16.40;45.10;18.40;93307.00;;;;10272617;28;45114;-61
2022/05/30 14:03:32;;;;;;;0.45;0.20;;;16.40;45.10;18.40;93302.00;;;;10272769;28;45127;-61
2022/05/30 14:08:54;;;;;;;1.13;0.40;;;16.40;45.10;18.40;93304.00;;;;10272264;28;45190;-60
2022/05/30 14:14:37;;;;;;;1.27;0.30;;;16.40;45.20;18.40;93293.00;;;;10269072;28;45865;-60
2022/05/30 14:20:11;;;;;;;1.25;0.40;;;16.40;45.20;18.50;93298.00;;;;10268509;28;45833;-61
2022/05/30 14:25:38;;;;;;;2.17;0.40;;;16.50;45.20;18.50;93285.00;;;;10271094;28;45697;-60
2022/05/30 14:31:02;;;;;;;0.63;0.30;;;16.50;45.10;18.50;93293.00;;;;10271489;28;45151;-61
2022/05/30 14:36:41;;;;;;;0.80;0.30;;;16.50;45.00;18.50;93283.00;;;;10271017;28;45108;-61
2022/05/30 14:42:05;;;;;;;1.05;0.30;;;16.50;45.00;18.60;93282.00;;;;10271335;28;45826;-61
2022/05/30 14:47:33;;;;;;;0.57;0.25;;;16.60;45.10;18.60;93289.00;;;;10271050;28;45201;-61
2022/05/30 14:52:56;;;;;;;;;;;16.60;45.20;18.60;93297.00;;;;10271734;28;45705;-60
2022/05/30 14:58:24;;;;;;;1.42;0.30;;;16.60;45.20;18.60;93283.00;;;;10270661;28;45254;-61
2022/05/30 15:04:05;;;;;;;0.77;0.35;;;16.60;45.20;18.60;93294.00;;;;10271714;28;45183;-61
2022/05/30 15:09:27;;;;;;;1.17;0.35;;;16.60;45.20;18.60;93302.00;;;;10269865;28;45712;-61
2022/05/30 15:14:49;;;;;;;1.23;0.30;;;16.60;45.20;18.70;93292.00;;;;10277737;28;45798;-61
2022/05/30 15:20:12;;;;;;;0.88;0.30;;;16.70;45.20;18.70;93298.00;;;;10275725;28;45690;-61
2022/05/30 15:25:33;;;;;;;0.85;0.30;;;16.70;45.20;18.70;93301.00;;;;10274171;28;45411;-61
2022/05/30 15:30:55;;;;;;;0.75;0.30;;;16.70;45.20;18.70;93303.00;;;;10274275;28;45366;-61
2022/05/30 15:36:18;;;;;;;1.45;0.25;;;16.70;45.20;18.70;93312.00;;;;10275599;28;45159;-61
2022/05/30 15:41:41;;;;;;;0.45;0.32;;;16.80;45.20;18.70;93304.00;;;;10274882;28;45524;-61
2022/05/30 15:47:03;;;;;;;0.40;0.40;;;16.80;45.20;18.80;93306.00;;;;10276429;28;45217;-65
2022/05/30 15:52:29;;;;;;;1.00;0.30;;;16.80;45.80;18.80;93302.00;;;;10274117;28;45422;-60
2022/05/30 15:57:50;;;;;;;0.85;0.30;;;16.80;45.10;18.90;93303.00;;;;10275685;28;45176;-61
2022/05/30 16:03:12;;;;;;;0.40;0.25;;;16.90;45.10;19.00;93299.00;;;;10275581;28;45774;-61
2022/05/30 16:08:40;;;;;;;2.38;0.30;;;17.00;45.00;19.10;93295.00;;;;10267421;28;45227;-61
2022/05/30 16:14:00;;;;;;;0.50;0.30;;;17.00;45.20;19.20;93298.00;;;;10272486;28;45178;-61
2022/05/30 16:19:23;;;;;;;0.75;0.45;;;17.10;42.70;19.20;93295.00;;;;10273095;28;45185;-62
2022/05/30 16:24:44;;;;;;;3.15;0.93;;;17.20;43.50;19.20;93291.00;;;;10272841;28;45173;-62
2022/05/30 16:30:06;;;;;;;1.85;0.43;;;17.20;43.00;19.10;93283.00;;;;10275250;28;45429;-60
2022/05/30 16:35:28;;;;;;;2.00;0.57;;;17.10;43.60;19.10;93293.00;;;;10275387;28;45537;-61
2022/05/30 16:40:49;;;;;;;0.52;0.30;;;17.20;43.80;19.10;93280.00;;;;10273915;28;45450;-60
2022/05/30 16:46:09;;;;;;;1.45;0.52;;;17.10;43.60;19.10;93298.00;;;;10275364;28;45339;-61
2022/05/30 16:51:31;;;;;;;0.88;0.35;;;17.10;43.60;19.10;93293.00;;;;10273284;28;45296;-61
2022/05/30 16:56:57;;;;;;;1.33;0.63;;;17.20;43.80;19.10;93286.00;;;;10274567;28;45117;-61
2022/05/30 17:02:18;;;;;;;1.67;0.45;;;17.10;43.30;19.10;93281.00;;;;10261546;28;45198;-61
2022/05/30 17:07:42;;;;;;;0.63;0.30;;;17.10;43.40;19.10;93292.00;;;;10258460;28;45137;-61
2022/05/30 17:13:03;;;;;;;1.67;0.40;;;17.10;43.40;19.10;93293.00;;;;10274183;28;45853;-61
2022/05/30 17:18:24;;;;;;;2.30;0.80;;;17.10;43.40;19.10;93299.00;;;;10273591;28;45096;-61
2022/05/30 17:23:46;;;;;;;1.17;0.47;;;17.10;43.40;19.10;93303.00;;;;10274099;28;45103;-61
2022/05/30 17:29:17;;;;;;;1.13;0.70;;;17.10;43.30;19.10;93307.00;;;;10267758;28;45684;-61
2022/05/30 17:34:38;;;;;;;0.98;0.50;;;17.10;43.40;19.10;93316.00;;;;10271494;28;46046;-61
2022/05/30 17:39:59;;;;;;;1.45;0.45;;;17.10;43.50;19.10;93316.00;;;;10271959;28;45736;-61
2022/05/30 17:45:20;;;;;;;0.95;0.55;;;17.10;43.40;19.10;93307.00;;;;10272862;28;45157;-61
2022/05/30 17:50:49;;;;;;;0.60;0.30;;;17.10;43.70;19.10;93304.00;;;;10272225;28;45170;-61
2022/05/30 17:56:14;;;;;;;1.13;0.50;;;17.10;43.60;19.10;93314.00;;;;10272410;28;45134;-61
2022/05/30 18:01:35;;;;;;;0.70;0.50;;;17.00;43.50;19.10;93313.00;;;;10269731;28;45555;-61
2022/05/30 18:07:24;;;;;;;0.85;0.30;;;17.10;43.20;19.20;93314.00;;;;10270934;28;45157;-60
2022/05/30 18:13:01;;;;;;;2.42;0.55;;;17.10;43.10;19.10;93305.00;;;;10272506;28;45300;-60
2022/05/30 18:24:21;;;;;;;0.95;0.50;;;17.10;43.40;19.10;93312.00;;;;10272080;28;45130;-59
2022/05/30 18:29:43;;;;;;;0.80;0.40;;;17.10;43.60;19.00;93304.00;;;;10269238;28;45849;-59
2022/05/30 18:35:15;;;;;;;0.63;0.32;;;17.10;43.80;19.10;93282.00;;;;10270051;28;45175;-61
2022/05/30 18:40:42;;;;;;;0.45;0.30;;;17.00;43.80;19.10;93319.00;;;;10269954;28;45858;-62
2022/05/30 18:46:13;;;;;;;1.50;0.60;;;17.10;44.00;19.10;93317.00;;;;10266966;28;45182;-60
2022/05/30 18:51:35;;;;;;;1.10;0.55;;;17.00;44.20;19.10;93311.00;;;;10276437;28;45145;-62
2022/05/30 18:57:03;;;;;;;0.77;0.30;;;17.00;44.30;19.10;93318.00;;;;10277044;28;45806;-61
2022/05/30 19:02:26;;;;;;;1.85;0.40;;;17.00;44.50;19.10;93309.00;;;;10277150;28;45142;-61
2022/05/30 19:07:49;;;;;;;0.38;0.30;;;17.00;44.70;19.00;93336.00;;;;10267285;28;45189;-62
2022/05/30 19:13:13;;;;;;;1.20;0.45;;;17.00;44.80;19.00;93330.00;;;;10277412;28;45151;-63
2022/05/30 19:18:46;;;;;;;1.23;0.50;;;17.00;44.80;19.10;93341.00;;;;10274111;28;45163;-62
2022/05/30 19:24:09;;;;;;;1.67;0.38;;;17.00;45.00;19.00;93341.00;;;;10273112;28;45241;-63
2022/05/30 19:29:30;;;;;;;1.17;0.55;;;17.00;44.90;19.00;93333.00;;;;10297721;23;45713;-66
2022/05/30 19:34:52;;;;;;;1.45;0.50;;;16.90;44.90;19.00;93361.00;;;;10277999;28;45102;-65
2022/05/30 19:40:13;;;;;;;0.85;0.40;;;16.90;44.90;18.90;93359.00;;;;10277068;28;45269;-65
2022/05/30 19:45:38;;;;;;;1.00;0.50;;;16.90;45.00;18.90;93357.00;;;;10269270;28;45136;-66
2022/05/30 19:51:01;;;;;;;0.88;0.38;;;16.80;45.00;18.90;93362.00;;;;10277299;28;45131;-68
2022/05/30 19:56:25;;;;;;;0.93;0.40;;;16.80;45.00;18.90;93381.00;;;;10264252;28;45427;-68
2022/05/30 20:01:46;;;;;;;0.95;0.50;;;16.80;45.00;18.90;93391.00;;;;10276964;28;45848;-68
2022/05/30 20:07:09;;;;;;;0.80;0.40;;;16.80;45.00;18.90;93408.00;;;;10275496;28;45174;-67
2022/05/30 20:12:29;;;;;;;0.65;0.32;;;16.80;45.00;18.80;93393.00;;;;10276437;28;45205;-68
2022/05/30 20:17:50;;;;;;;1.25;0.40;;;16.80;45.00;18.80;93399.00;;;;10272445;28;45255;-68
2022/05/30 20:23:12;;;;;;;0.75;0.35;;;16.70;45.00;18.80;93412.00;;;;10273447;28;45401;-68
2022/05/30 20:28:33;;;;;;;1.33;0.45;;;16.70;45.00;18.80;93429.00;;;;10275146;28;45229;-68
2022/05/30 20:33:53;;;;;;;1.00;0.40;;;16.70;44.90;18.70;93415.00;;;;10276285;28;45832;-67
2022/05/30 20:39:16;;;;;;;0.82;0.40;;;16.70;45.00;18.80;93415.00;;;;10275790;28;45219;-68
2022/05/30 20:44:36;;;;;;;0.85;0.40;;;16.70;45.00;18.70;93432.00;;;;10275630;28;45098;-68
2022/05/30 20:49:57;;;;;;;1.02;0.40;;;16.70;45.20;18.70;93433.00;;;;10274981;28;45149;-67
2022/05/30 20:55:19;;;;;;;0.55;0.40;;;16.60;45.00;18.70;93433.00;;;;10275315;28;45427;-67
2022/05/30 21:00:39;;;;;;;0.30;0.30;;;16.60;45.00;18.70;93432.00;;;;10275532;28;45235;-67
2022/05/30 21:06:00;;;;;;;0.63;0.38;;;16.60;45.00;18.70;93434.00;;;;10275064;28;45129;-68
2022/05/30 21:11:23;;;;;;;0.40;0.30;;;16.60;45.00;18.70;93432.00;;;;10274580;28;45432;-68
2022/05/30 21:16:48;;;;;;;0.85;0.50;;;16.60;45.00;18.70;93424.00;;;;10274360;28;45802;-68
2022/05/30 21:22:12;;;;;;;0.85;0.40;;;16.60;45.10;18.70;93418.00;;;;10274875;28;46079;-68
2022/05/30 21:27:35;;;;;;;0.90;0.40;;;16.60;45.10;18.70;93425.00;;;;10274057;28;45757;-68
2022/05/30 21:33:01;;;;;;;1.25;0.40;;;16.60;45.00;18.60;93413.00;;;;10275055;28;45265;-68
2022/05/30 21:38:22;;;;;;;1.42;0.52;;;16.60;45.10;18.60;93417.00;;;;10274117;28;45133;-67
2022/05/30 21:43:43;;;;;;;0.80;0.50;;;16.60;45.20;18.60;93420.00;;;;10274408;28;45208;-67
2022/05/30 21:49:04;;;;;;;0.98;0.50;;;16.60;45.10;18.60;93413.00;;;;10273666;28;45857;-67
2022/05/30 21:54:24;;;;;;;1.98;0.40;;;16.50;45.00;18.60;93419.00;;;;10274051;28;45169;-68
2022/05/30 21:59:47;;;;;;;1.02;0.30;;;16.50;45.10;18.60;93418.00;;;;10273443;28;45232;-68
2022/05/30 22:05:08;;;;;;;0.95;0.30;;;16.50;45.10;18.60;93415.00;;;;10273749;28;45101;-67
2022/05/30 22:10:28;;;;;;;0.65;0.40;;;16.50;45.10;18.60;93410.00;;;;10273350;28;45194;-67
2022/05/30 22:15:51;;;;;;;0.40;0.40;;;16.50;45.10;18.60;93419.00;;;;10273579;28;45187;-67
2022/05/30 22:21:11;;;;;;;0.52;0.38;;;16.50;45.10;18.60;93420.00;;;;10277026;28;45201;-67
2022/05/30 22:26:34;;;;;;;0.77;0.35;;;16.50;45.10;18.50;93428.00;;;;10279628;28;45274;-67
2022/05/30 22:31:56;;;;;;;0.82;0.30;;;16.50;45.20;18.50;93415.00;;;;10280036;28;45714;-67
2022/05/30 22:37:16;;;;;;;0.32;0.20;;;16.50;45.30;18.50;93420.00;;;;10280064;28;45691;-68
2022/05/30 22:42:37;;;;;;;0.95;0.40;;;16.50;45.20;18.50;93402.00;;;;10279901;28;45694;-67
2022/05/30 22:47:59;;;;;;;0.40;0.30;;;16.40;45.20;18.50;93427.00;;;;10279063;28;45698;-67
2022/05/30 22:53:20;;;;;;;0.45;0.30;;;16.50;45.20;18.50;93425.00;;;;10279011;28;45106;-67
2022/05/30 22:58:42;;;;;;;0.60;0.40;;;16.40;45.30;18.50;93420.00;;;;10279022;28;45118;-67
2022/05/30 23:04:04;;;;;;;0.50;0.40;;;16.40;45.40;18.50;93427.00;;;;10279081;28;45191;-67
2022/05/30 23:09:25;;;;;;;0.30;0.30;;;16.40;45.30;18.50;93423.00;;;;10278624;28;45190;-68
2022/05/30 23:14:45;;;;;;;0.73;0.30;;;16.40;45.30;18.50;93419.00;;;;10278876;28;45201;-68
2022/05/30 23:20:12;;;;;;;0.35;0.22;;;16.40;45.30;18.50;93413.00;;;;10278149;28;45158;-67
2022/05/30 23:25:33;;;;;;;0.30;0.30;;;16.40;45.30;18.50;93416.00;;;;10278150;28;45713;-67
2022/05/30 23:30:54;;;;;;;0.90;0.40;;;16.40;45.30;18.50;93409.00;;;;10277094;28;45185;-67
2022/05/30 23:36:16;;;;;;;0.30;0.30;;;16.40;45.30;18.50;93403.00;;;;10277928;28;45217;-67
2022/05/30 23:47:20;;;;;;;0.47;0.20;;;16.40;45.30;18.40;93404.00;;;;10277418;28;45158;-67
2022/05/30 23:52:43;;;;;;;1.13;0.30;;;16.40;45.40;18.40;93413.00;;;;10277366;28;45155;-68
2022/05/30 23:58:04;;;;;;;0.88;0.50;;;16.40;45.40;18.40;93390.00;;;;10276861;28;45849;-67
